sensor_id;sensor_type;location;lat;lon;timestamp;temperature;humidity
9215;DHT22;4642;51.364;6.788;2023-05-16T00:00:55;11.60;99.90
9215;DHT22;4642;51.364;6.788;2023-05-16T00:03:22;11.50;99.90
9215;DHT22;4642;51.364;6.788;2023-05-16T00:05:48;11.60;99.90
9215;DHT22;4642;51.364;6.788;2023-05-16T00:08:14;11.60;99.90
9215;DHT22;4642;51.364;6.788;2023-05-16T00:10:40;11.60;99.90
9215;DHT22;4642;51.364;6.788;2023-05-16T00:13:06;11.50;99.90
9215;DHT22;4642;51.364;6.788;2023-05-16T00:15:31;11.50;99.90
9215;DHT22;4642;51.364;6.788;2023-05-16T00:17:57;11.40;99.90
9215;DHT22;4642;51.364;6.788;2023-05-16T00:20:24;11.30;99.90
9215;DHT22;4642;51.364;6.788;2023-05-16T00:22:51;11.30;99.90
9215;DHT22;4642;51.364;6.788;2023-05-16T00:25:16;11.20;99.90
9215;DHT22;4642;51.364;6.788;2023-05-16T00:27:42;11.20;99.90
9215;DHT22;4642;51.364;6.788;2023-05-16T00:30:08;11.20;99.90
9215;DHT22;4642;51.364;6.788;2023-05-16T00:32:35;11.10;99.90
9215;DHT22;4642;51.364;6.788;2023-05-16T00:35:00;11.10;99.90
9215;DHT22;4642;51.364;6.788;2023-05-16T00:37:26;11.10;99.90
9215;DHT22;4642;51.364;6.788;2023-05-16T00:39:51;11.10;99.90
9215;DHT22;4642;51.364;6.788;2023-05-16T00:42:20;11.00;99.90
9215;DHT22;4642;51.364;6.788;2023-05-16T00:44:47;11.00;99.90
9215;DHT22;4642;51.364;6.788;2023-05-16T00:47:13;11.00;99.90
9215;DHT22;4642;51.364;6.788;2023-05-16T00:49:39;11.00;99.90
9215;DHT22;4642;51.364;6.788;2023-05-16T00:52:04;10.90;99.90
9215;DHT22;4642;51.364;6.788;2023-05-16T00:54:30;11.00;99.90
9215;DHT22;4642;51.364;6.788;2023-05-16T00:56:56;10.90;99.90
9215;DHT22;4642;51.364;6.788;2023-05-16T00:59:25;10.90;99.90
9215;DHT22;4642;51.364;6.788;2023-05-16T01:01:51;10.90;99.90
9215;DHT22;4642;51.364;6.788;2023-05-16T01:04:17;10.90;99.90
9215;DHT22;4642;51.364;6.788;2023-05-16T01:06:44;10.80;99.90
9215;DHT22;4642;51.364;6.788;2023-05-16T01:09:10;10.80;99.90
9215;DHT22;4642;51.364;6.788;2023-05-16T01:14:31;10.70;99.90
9215;DHT22;4642;51.364;6.788;2023-05-16T01:17:22;10.70;99.90
9215;DHT22;4642;51.364;6.788;2023-05-16T01:20:08;10.70;99.90
9215;DHT22;4642;51.364;6.788;2023-05-16T01:22:52;10.70;99.90
9215;DHT22;4642;51.364;6.788;2023-05-16T01:28:10;10.60;99.90
9215;DHT22;4642;51.364;6.788;2023-05-16T01:30:38;10.40;99.90
9215;DHT22;4642;51.364;6.788;2023-05-16T01:33:05;10.20;99.90
9215;DHT22;4642;51.364;6.788;2023-05-16T01:35:31;10.30;99.90
9215;DHT22;4642;51.364;6.788;2023-05-16T01:38:17;10.30;99.90
9215;DHT22;4642;51.364;6.788;2023-05-16T01:43:43;10.20;99.90
9215;DHT22;4642;51.364;6.788;2023-05-16T01:46:12;10.20;99.90
9215;DHT22;4642;51.364;6.788;2023-05-16T01:48:50;10.10;99.90
9215;DHT22;4642;51.364;6.788;2023-05-16T01:51:20;10.10;99.90
9215;DHT22;4642;51.364;6.788;2023-05-16T01:53:47;10.00;99.90
9215;DHT22;4642;51.364;6.788;2023-05-16T01:56:15;10.20;99.90
9215;DHT22;4642;51.364;6.788;2023-05-16T01:58:42;10.10;99.90
9215;DHT22;4642;51.364;6.788;2023-05-16T02:01:08;10.10;99.90
9215;DHT22;4642;51.364;6.788;2023-05-16T02:03:34;10.10;99.90
9215;DHT22;4642;51.364;6.788;2023-05-16T02:06:00;10.10;99.90
9215;DHT22;4642;51.364;6.788;2023-05-16T02:08:26;10.00;99.90
9215;DHT22;4642;51.364;6.788;2023-05-16T02:10:52;10.00;99.90
9215;DHT22;4642;51.364;6.788;2023-05-16T02:13:18;9.90;99.90
9215;DHT22;4642;51.364;6.788;2023-05-16T02:15:43;9.90;99.90
9215;DHT22;4642;51.364;6.788;2023-05-16T02:18:09;9.90;99.90
9215;DHT22;4642;51.364;6.788;2023-05-16T02:20:35;9.90;99.90
9215;DHT22;4642;51.364;6.788;2023-05-16T02:23:01;9.90;99.90
9215;DHT22;4642;51.364;6.788;2023-05-16T02:25:27;9.90;99.90
9215;DHT22;4642;51.364;6.788;2023-05-16T02:27:53;10.00;99.90
9215;DHT22;4642;51.364;6.788;2023-05-16T02:30:19;9.90;99.90
9215;DHT22;4642;51.364;6.788;2023-05-16T02:32:44;10.00;99.90
9215;DHT22;4642;51.364;6.788;2023-05-16T02:35:10;9.90;99.90
9215;DHT22;4642;51.364;6.788;2023-05-16T02:37:36;9.90;99.90
9215;DHT22;4642;51.364;6.788;2023-05-16T02:40:02;9.90;99.90
9215;DHT22;4642;51.364;6.788;2023-05-16T02:42:30;9.90;99.90
9215;DHT22;4642;51.364;6.788;2023-05-16T02:44:56;9.90;99.90
9215;DHT22;4642;51.364;6.788;2023-05-16T02:47:22;10.00;99.90
9215;DHT22;4642;51.364;6.788;2023-05-16T02:49:47;9.90;99.90
9215;DHT22;4642;51.364;6.788;2023-05-16T02:52:13;9.90;99.90
9215;DHT22;4642;51.364;6.788;2023-05-16T02:54:39;10.00;99.90
9215;DHT22;4642;51.364;6.788;2023-05-16T02:57:04;10.00;99.90
9215;DHT22;4642;51.364;6.788;2023-05-16T02:59:30;10.00;99.90
9215;DHT22;4642;51.364;6.788;2023-05-16T03:01:55;9.90;99.90
9215;DHT22;4642;51.364;6.788;2023-05-16T03:04:21;9.90;99.90
9215;DHT22;4642;51.364;6.788;2023-05-16T03:06:48;9.90;99.90
9215;DHT22;4642;51.364;6.788;2023-05-16T03:09:15;9.80;99.90
9215;DHT22;4642;51.364;6.788;2023-05-16T03:11:41;9.80;99.90
9215;DHT22;4642;51.364;6.788;2023-05-16T03:14:06;9.80;99.90
9215;DHT22;4642;51.364;6.788;2023-05-16T03:16:32;9.70;99.90
9215;DHT22;4642;51.364;6.788;2023-05-16T03:18:58;9.70;99.90
9215;DHT22;4642;51.364;6.788;2023-05-16T03:21:23;9.80;99.90
9215;DHT22;4642;51.364;6.788;2023-05-16T03:23:49;9.70;99.90
9215;DHT22;4642;51.364;6.788;2023-05-16T03:26:15;9.70;99.90
9215;DHT22;4642;51.364;6.788;2023-05-16T03:28:40;9.50;99.90
9215;DHT22;4642;51.364;6.788;2023-05-16T03:31:06;9.50;99.90
9215;DHT22;4642;51.364;6.788;2023-05-16T03:33:31;9.40;99.90
9215;DHT22;4642;51.364;6.788;2023-05-16T03:35:57;9.40;99.90
9215;DHT22;4642;51.364;6.788;2023-05-16T03:38:22;9.30;99.90
9215;DHT22;4642;51.364;6.788;2023-05-16T03:40:48;9.30;99.90
9215;DHT22;4642;51.364;6.788;2023-05-16T03:43:14;9.30;99.90
9215;DHT22;4642;51.364;6.788;2023-05-16T03:45:39;9.20;99.90
9215;DHT22;4642;51.364;6.788;2023-05-16T03:48:05;9.10;99.90
9215;DHT22;4642;51.364;6.788;2023-05-16T03:50:30;9.10;99.90
9215;DHT22;4642;51.364;6.788;2023-05-16T03:52:56;9.10;99.90
9215;DHT22;4642;51.364;6.788;2023-05-16T03:55:21;9.00;99.90
9215;DHT22;4642;51.364;6.788;2023-05-16T03:57:47;9.00;99.90
9215;DHT22;4642;51.364;6.788;2023-05-16T04:00:14;9.00;99.90
9215;DHT22;4642;51.364;6.788;2023-05-16T04:02:40;8.90;99.90
9215;DHT22;4642;51.364;6.788;2023-05-16T04:05:08;8.90;99.90
9215;DHT22;4642;51.364;6.788;2023-05-16T04:07:34;8.90;99.90
9215;DHT22;4642;51.364;6.788;2023-05-16T04:10:01;9.00;99.90
9215;DHT22;4642;51.364;6.788;2023-05-16T04:12:26;9.00;99.90
9215;DHT22;4642;51.364;6.788;2023-05-16T04:14:52;8.90;99.90
9215;DHT22;4642;51.364;6.788;2023-05-16T04:17:17;8.90;99.90
9215;DHT22;4642;51.364;6.788;2023-05-16T04:19:43;8.90;99.90
9215;DHT22;4642;51.364;6.788;2023-05-16T04:22:08;8.80;99.90
9215;DHT22;4642;51.364;6.788;2023-05-16T04:24:34;8.80;99.90
9215;DHT22;4642;51.364;6.788;2023-05-16T04:26:59;8.80;99.90
9215;DHT22;4642;51.364;6.788;2023-05-16T04:29:25;8.70;99.90
9215;DHT22;4642;51.364;6.788;2023-05-16T04:31:51;8.70;99.90
9215;DHT22;4642;51.364;6.788;2023-05-16T04:34:16;8.80;99.90
9215;DHT22;4642;51.364;6.788;2023-05-16T04:36:42;8.80;99.90
9215;DHT22;4642;51.364;6.788;2023-05-16T04:39:08;8.80;99.90
9215;DHT22;4642;51.364;6.788;2023-05-16T04:41:33;8.80;99.90
9215;DHT22;4642;51.364;6.788;2023-05-16T04:44:03;8.80;99.90
9215;DHT22;4642;51.364;6.788;2023-05-16T04:46:29;8.80;99.90
9215;DHT22;4642;51.364;6.788;2023-05-16T04:48:55;8.80;99.90
9215;DHT22;4642;51.364;6.788;2023-05-16T04:51:21;8.70;99.90
9215;DHT22;4642;51.364;6.788;2023-05-16T04:53:46;8.80;99.90
9215;DHT22;4642;51.364;6.788;2023-05-16T04:56:12;8.80;99.90
9215;DHT22;4642;51.364;6.788;2023-05-16T04:58:38;8.80;99.90
9215;DHT22;4642;51.364;6.788;2023-05-16T05:01:03;8.80;99.90
9215;DHT22;4642;51.364;6.788;2023-05-16T05:03:29;8.80;99.90
9215;DHT22;4642;51.364;6.788;2023-05-16T05:05:54;8.80;99.90
9215;DHT22;4642;51.364;6.788;2023-05-16T05:08:20;8.80;99.90
9215;DHT22;4642;51.364;6.788;2023-05-16T05:10:46;8.70;99.90
9215;DHT22;4642;51.364;6.788;2023-05-16T05:13:11;8.70;99.90
9215;DHT22;4642;51.364;6.788;2023-05-16T05:15:37;8.70;99.90
9215;DHT22;4642;51.364;6.788;2023-05-16T05:18:03;8.70;99.90
9215;DHT22;4642;51.364;6.788;2023-05-16T05:20:28;8.70;99.90
9215;DHT22;4642;51.364;6.788;2023-05-16T05:22:54;8.70;99.90
9215;DHT22;4642;51.364;6.788;2023-05-16T05:25:20;8.70;99.90
9215;DHT22;4642;51.364;6.788;2023-05-16T05:27:45;8.70;99.90
9215;DHT22;4642;51.364;6.788;2023-05-16T05:30:11;8.70;99.90
9215;DHT22;4642;51.364;6.788;2023-05-16T05:32:37;8.70;99.90
9215;DHT22;4642;51.364;6.788;2023-05-16T05:35:03;8.60;99.90
9215;DHT22;4642;51.364;6.788;2023-05-16T05:37:28;8.70;99.90
9215;DHT22;4642;51.364;6.788;2023-05-16T05:39:55;8.80;99.90
9215;DHT22;4642;51.364;6.788;2023-05-16T05:42:21;8.80;99.90
9215;DHT22;4642;51.364;6.788;2023-05-16T05:44:46;8.80;99.90
9215;DHT22;4642;51.364;6.788;2023-05-16T05:47:12;8.90;99.90
9215;DHT22;4642;51.364;6.788;2023-05-16T05:49:38;8.90;99.90
9215;DHT22;4642;51.364;6.788;2023-05-16T05:52:04;8.90;99.90
9215;DHT22;4642;51.364;6.788;2023-05-16T05:54:29;8.90;99.90
9215;DHT22;4642;51.364;6.788;2023-05-16T05:56:58;9.00;99.90
9215;DHT22;4642;51.364;6.788;2023-05-16T05:59:24;9.10;99.90
9215;DHT22;4642;51.364;6.788;2023-05-16T06:01:50;9.20;99.90
9215;DHT22;4642;51.364;6.788;2023-05-16T06:04:20;9.30;99.90
9215;DHT22;4642;51.364;6.788;2023-05-16T06:06:45;9.40;99.90
9215;DHT22;4642;51.364;6.788;2023-05-16T06:09:11;9.50;99.90
9215;DHT22;4642;51.364;6.788;2023-05-16T06:11:39;9.60;99.90
9215;DHT22;4642;51.364;6.788;2023-05-16T06:14:05;9.70;99.90
9215;DHT22;4642;51.364;6.788;2023-05-16T06:16:30;9.70;99.90
9215;DHT22;4642;51.364;6.788;2023-05-16T06:18:56;9.80;99.90
9215;DHT22;4642;51.364;6.788;2023-05-16T06:21:21;9.90;99.90
9215;DHT22;4642;51.364;6.788;2023-05-16T06:23:47;9.90;99.90
9215;DHT22;4642;51.364;6.788;2023-05-16T06:26:13;10.00;99.90
9215;DHT22;4642;51.364;6.788;2023-05-16T06:28:38;10.00;99.90
9215;DHT22;4642;51.364;6.788;2023-05-16T06:31:04;10.00;99.90
9215;DHT22;4642;51.364;6.788;2023-05-16T06:33:29;10.00;99.90
9215;DHT22;4642;51.364;6.788;2023-05-16T06:35:55;10.10;99.90
9215;DHT22;4642;51.364;6.788;2023-05-16T06:38:21;10.10;99.90
9215;DHT22;4642;51.364;6.788;2023-05-16T06:40:46;10.20;99.90
9215;DHT22;4642;51.364;6.788;2023-05-16T06:43:12;10.30;99.90
9215;DHT22;4642;51.364;6.788;2023-05-16T06:45:38;10.30;99.90
9215;DHT22;4642;51.364;6.788;2023-05-16T06:48:05;10.40;99.90
9215;DHT22;4642;51.364;6.788;2023-05-16T06:50:31;10.40;99.90
9215;DHT22;4642;51.364;6.788;2023-05-16T06:52:57;10.50;99.90
9215;DHT22;4642;51.364;6.788;2023-05-16T06:55:22;10.50;99.90
9215;DHT22;4642;51.364;6.788;2023-05-16T06:57:48;10.50;99.90
9215;DHT22;4642;51.364;6.788;2023-05-16T07:00:14;10.60;99.90
9215;DHT22;4642;51.364;6.788;2023-05-16T07:02:40;10.60;42.00
9215;DHT22;4642;51.364;6.788;2023-05-16T07:05:06;10.70;1.00
9215;DHT22;4642;51.364;6.788;2023-05-16T07:07:31;10.80;1.00
9215;DHT22;4642;51.364;6.788;2023-05-16T07:09:57;10.70;1.00
9215;DHT22;4642;51.364;6.788;2023-05-16T07:12:23;10.80;1.00
9215;DHT22;4642;51.364;6.788;2023-05-16T07:14:48;10.80;1.00
9215;DHT22;4642;51.364;6.788;2023-05-16T07:17:14;10.80;99.90
9215;DHT22;4642;51.364;6.788;2023-05-16T07:19:40;10.80;99.90
9215;DHT22;4642;51.364;6.788;2023-05-16T07:22:06;10.80;99.90
9215;DHT22;4642;51.364;6.788;2023-05-16T07:24:31;10.80;99.90
9215;DHT22;4642;51.364;6.788;2023-05-16T07:26:57;10.80;99.90
9215;DHT22;4642;51.364;6.788;2023-05-16T07:29:22;10.80;99.90
9215;DHT22;4642;51.364;6.788;2023-05-16T07:31:48;10.80;99.90
9215;DHT22;4642;51.364;6.788;2023-05-16T07:34:13;10.90;99.90
9215;DHT22;4642;51.364;6.788;2023-05-16T07:36:39;10.90;99.90
9215;DHT22;4642;51.364;6.788;2023-05-16T07:39:05;10.90;99.90
9215;DHT22;4642;51.364;6.788;2023-05-16T07:41:31;11.10;99.90
9215;DHT22;4642;51.364;6.788;2023-05-16T07:43:56;11.10;99.90
9215;DHT22;4642;51.364;6.788;2023-05-16T07:46:22;11.20;99.90
9215;DHT22;4642;51.364;6.788;2023-05-16T07:48:47;11.30;99.90
9215;DHT22;4642;51.364;6.788;2023-05-16T07:51:13;11.40;99.90
9215;DHT22;4642;51.364;6.788;2023-05-16T07:53:39;11.40;99.90
9215;DHT22;4642;51.364;6.788;2023-05-16T07:56:05;11.50;99.90
9215;DHT22;4642;51.364;6.788;2023-05-16T07:58:31;11.40;99.90
9215;DHT22;4642;51.364;6.788;2023-05-16T08:00:57;11.40;99.90
9215;DHT22;4642;51.364;6.788;2023-05-16T08:03:22;11.30;99.90
9215;DHT22;4642;51.364;6.788;2023-05-16T08:05:48;11.20;99.90
9215;DHT22;4642;51.364;6.788;2023-05-16T08:08:13;11.20;99.90
9215;DHT22;4642;51.364;6.788;2023-05-16T08:10:39;11.20;1.00
9215;DHT22;4642;51.364;6.788;2023-05-16T08:13:05;11.20;99.90
9215;DHT22;4642;51.364;6.788;2023-05-16T08:15:30;11.30;99.90
9215;DHT22;4642;51.364;6.788;2023-05-16T08:17:57;11.20;99.90
9215;DHT22;4642;51.364;6.788;2023-05-16T08:20:24;11.20;99.90
9215;DHT22;4642;51.364;6.788;2023-05-16T08:22:50;11.20;99.90
9215;DHT22;4642;51.364;6.788;2023-05-16T08:25:16;11.20;99.90
9215;DHT22;4642;51.364;6.788;2023-05-16T08:27:44;11.30;99.90
9215;DHT22;4642;51.364;6.788;2023-05-16T08:30:10;11.40;99.90
9215;DHT22;4642;51.364;6.788;2023-05-16T08:32:36;11.60;99.90
9215;DHT22;4642;51.364;6.788;2023-05-16T08:35:02;11.60;99.90
9215;DHT22;4642;51.364;6.788;2023-05-16T08:37:27;11.70;99.90
9215;DHT22;4642;51.364;6.788;2023-05-16T08:39:53;11.70;99.90
9215;DHT22;4642;51.364;6.788;2023-05-16T08:42:19;11.70;99.90
9215;DHT22;4642;51.364;6.788;2023-05-16T08:44:44;11.80;5.40
9215;DHT22;4642;51.364;6.788;2023-05-16T08:47:17;11.90;1.40
9215;DHT22;4642;51.364;6.788;2023-05-16T08:49:43;11.90;1.00
9215;DHT22;4642;51.364;6.788;2023-05-16T08:52:12;11.90;79.30
9215;DHT22;4642;51.364;6.788;2023-05-16T08:54:38;11.90;99.90
9215;DHT22;4642;51.364;6.788;2023-05-16T08:57:05;12.00;44.70
9215;DHT22;4642;51.364;6.788;2023-05-16T08:59:31;12.10;49.20
9215;DHT22;4642;51.364;6.788;2023-05-16T09:01:57;12.20;1.00
9215;DHT22;4642;51.364;6.788;2023-05-16T09:04:23;12.40;47.10
9215;DHT22;4642;51.364;6.788;2023-05-16T09:06:51;12.60;1.70
9215;DHT22;4642;51.364;6.788;2023-05-16T09:09:16;12.60;1.00
9215;DHT22;4642;51.364;6.788;2023-05-16T09:11:42;12.70;7.60
9215;DHT22;4642;51.364;6.788;2023-05-16T09:14:08;12.50;1.00
9215;DHT22;4642;51.364;6.788;2023-05-16T09:16:33;12.40;1.00
9215;DHT22;4642;51.364;6.788;2023-05-16T09:19:00;12.40;1.00
9215;DHT22;4642;51.364;6.788;2023-05-16T09:21:33;12.40;1.00
9215;DHT22;4642;51.364;6.788;2023-05-16T09:24:06;12.50;1.00
9215;DHT22;4642;51.364;6.788;2023-05-16T09:26:33;12.40;1.40
9215;DHT22;4642;51.364;6.788;2023-05-16T09:28:59;12.50;1.00
9215;DHT22;4642;51.364;6.788;2023-05-16T09:31:27;12.70;92.20
9215;DHT22;4642;51.364;6.788;2023-05-16T09:34:00;12.80;28.10
9215;DHT22;4642;51.364;6.788;2023-05-16T09:36:26;12.90;1.00
9215;DHT22;4642;51.364;6.788;2023-05-16T09:38:52;12.90;1.00
9215;DHT22;4642;51.364;6.788;2023-05-16T09:41:17;13.00;1.00
9215;DHT22;4642;51.364;6.788;2023-05-16T09:43:43;13.10;1.00
9215;DHT22;4642;51.364;6.788;2023-05-16T09:46:15;13.20;1.00
9215;DHT22;4642;51.364;6.788;2023-05-16T09:48:47;13.20;99.90
9215;DHT22;4642;51.364;6.788;2023-05-16T09:51:13;13.20;1.00
9215;DHT22;4642;51.364;6.788;2023-05-16T09:53:39;13.20;1.00
9215;DHT22;4642;51.364;6.788;2023-05-16T09:56:09;13.20;1.00
9215;DHT22;4642;51.364;6.788;2023-05-16T09:58:36;13.20;1.00
9215;DHT22;4642;51.364;6.788;2023-05-16T10:01:03;13.10;1.00
9215;DHT22;4642;51.364;6.788;2023-05-16T10:03:28;13.10;1.00
9215;DHT22;4642;51.364;6.788;2023-05-16T10:05:55;13.10;1.00
9215;DHT22;4642;51.364;6.788;2023-05-16T10:08:22;13.00;1.00
9215;DHT22;4642;51.364;6.788;2023-05-16T10:10:52;13.00;1.00
9215;DHT22;4642;51.364;6.788;2023-05-16T10:13:23;13.00;1.00
9215;DHT22;4642;51.364;6.788;2023-05-16T10:15:54;13.00;1.00
9215;DHT22;4642;51.364;6.788;2023-05-16T10:18:21;13.20;1.00
9215;DHT22;4642;51.364;6.788;2023-05-16T10:20:49;13.50;9.60
9215;DHT22;4642;51.364;6.788;2023-05-16T10:23:18;13.70;10.50
9215;DHT22;4642;51.364;6.788;2023-05-16T10:25:45;13.70;1.00
9215;DHT22;4642;51.364;6.788;2023-05-16T10:28:12;13.70;1.00
9215;DHT22;4642;51.364;6.788;2023-05-16T10:30:43;13.70;1.00
9215;DHT22;4642;51.364;6.788;2023-05-16T10:33:12;13.60;1.00
9215;DHT22;4642;51.364;6.788;2023-05-16T10:35:38;13.60;1.00
9215;DHT22;4642;51.364;6.788;2023-05-16T10:38:04;13.50;1.00
9215;DHT22;4642;51.364;6.788;2023-05-16T10:40:31;13.50;1.00
9215;DHT22;4642;51.364;6.788;2023-05-16T10:43:00;13.40;1.00
9215;DHT22;4642;51.364;6.788;2023-05-16T10:45:26;13.40;1.00
9215;DHT22;4642;51.364;6.788;2023-05-16T10:47:57;13.30;1.00
9215;DHT22;4642;51.364;6.788;2023-05-16T10:50:42;13.30;1.00
9215;DHT22;4642;51.364;6.788;2023-05-16T10:53:30;13.30;9.00
9215;DHT22;4642;51.364;6.788;2023-05-16T11:06:31;13.60;1.00
9215;DHT22;4642;51.364;6.788;2023-05-16T11:11:54;13.80;1.00
9215;DHT22;4642;51.364;6.788;2023-05-16T11:14:25;13.80;1.00
9215;DHT22;4642;51.364;6.788;2023-05-16T11:19:41;14.10;1.00
9215;DHT22;4642;51.364;6.788;2023-05-16T11:22:09;14.00;1.00
9215;DHT22;4642;51.364;6.788;2023-05-16T11:24:37;14.00;1.00
9215;DHT22;4642;51.364;6.788;2023-05-16T11:27:04;14.00;1.00
9215;DHT22;4642;51.364;6.788;2023-05-16T11:29:34;14.10;1.00
9215;DHT22;4642;51.364;6.788;2023-05-16T11:32:04;14.30;1.00
9215;DHT22;4642;51.364;6.788;2023-05-16T11:34:31;14.20;99.90
9215;DHT22;4642;51.364;6.788;2023-05-16T11:36:59;14.20;1.00
9215;DHT22;4642;51.364;6.788;2023-05-16T11:39:26;14.10;99.90
9215;DHT22;4642;51.364;6.788;2023-05-16T11:41:55;14.10;1.00
9215;DHT22;4642;51.364;6.788;2023-05-16T11:44:20;14.00;1.00
9215;DHT22;4642;51.364;6.788;2023-05-16T11:46:46;13.90;1.00
9215;DHT22;4642;51.364;6.788;2023-05-16T11:49:12;13.90;1.00
9215;DHT22;4642;51.364;6.788;2023-05-16T11:51:42;13.70;3.50
9215;DHT22;4642;51.364;6.788;2023-05-16T11:54:11;13.50;99.90
9215;DHT22;4642;51.364;6.788;2023-05-16T11:56:39;13.30;99.90
9215;DHT22;4642;51.364;6.788;2023-05-16T11:59:07;13.10;99.90
9215;DHT22;4642;51.364;6.788;2023-05-16T12:01:34;13.00;99.90
9215;DHT22;4642;51.364;6.788;2023-05-16T12:04:06;13.00;1.00
9215;DHT22;4642;51.364;6.788;2023-05-16T12:06:32;13.20;1.00
9215;DHT22;4642;51.364;6.788;2023-05-16T12:08:57;13.30;99.90
9215;DHT22;4642;51.364;6.788;2023-05-16T12:11:23;13.50;99.90
9215;DHT22;4642;51.364;6.788;2023-05-16T12:13:49;13.50;34.50
9215;DHT22;4642;51.364;6.788;2023-05-16T12:16:15;13.60;1.00
9215;DHT22;4642;51.364;6.788;2023-05-16T12:18:41;13.60;1.00
9215;DHT22;4642;51.364;6.788;2023-05-16T12:21:07;13.80;1.00
9215;DHT22;4642;51.364;6.788;2023-05-16T12:23:33;13.90;1.00
9215;DHT22;4642;51.364;6.788;2023-05-16T12:25:58;14.00;1.00
9215;DHT22;4642;51.364;6.788;2023-05-16T12:28:31;14.00;99.90
9215;DHT22;4642;51.364;6.788;2023-05-16T12:31:00;14.20;1.00
9215;DHT22;4642;51.364;6.788;2023-05-16T12:33:26;14.30;99.90
9215;DHT22;4642;51.364;6.788;2023-05-16T12:35:52;14.40;99.90
9215;DHT22;4642;51.364;6.788;2023-05-16T12:38:18;14.50;1.00
9215;DHT22;4642;51.364;6.788;2023-05-16T12:40:45;14.60;99.90
9215;DHT22;4642;51.364;6.788;2023-05-16T12:43:18;14.70;99.90
9215;DHT22;4642;51.364;6.788;2023-05-16T12:45:56;14.90;99.90
9215;DHT22;4642;51.364;6.788;2023-05-16T12:48:23;15.00;1.00
9215;DHT22;4642;51.364;6.788;2023-05-16T12:50:54;15.00;1.00
9215;DHT22;4642;51.364;6.788;2023-05-16T12:53:19;15.10;1.00
9215;DHT22;4642;51.364;6.788;2023-05-16T12:55:45;15.20;99.90
9215;DHT22;4642;51.364;6.788;2023-05-16T12:58:11;15.30;99.90
9215;DHT22;4642;51.364;6.788;2023-05-16T13:00:37;15.30;1.00
9215;DHT22;4642;51.364;6.788;2023-05-16T13:03:04;15.30;99.90
9215;DHT22;4642;51.364;6.788;2023-05-16T13:05:30;15.40;99.90
9215;DHT22;4642;51.364;6.788;2023-05-16T13:07:56;15.60;99.90
9215;DHT22;4642;51.364;6.788;2023-05-16T13:10:21;15.60;99.90
9215;DHT22;4642;51.364;6.788;2023-05-16T13:12:47;15.60;1.00
9215;DHT22;4642;51.364;6.788;2023-05-16T13:15:13;15.80;1.00
9215;DHT22;4642;51.364;6.788;2023-05-16T13:17:40;15.90;99.90
9215;DHT22;4642;51.364;6.788;2023-05-16T13:20:08;15.80;99.90
9215;DHT22;4642;51.364;6.788;2023-05-16T13:22:41;15.90;1.00
9215;DHT22;4642;51.364;6.788;2023-05-16T13:25:07;15.90;1.00
9215;DHT22;4642;51.364;6.788;2023-05-16T13:27:33;15.80;1.00
9215;DHT22;4642;51.364;6.788;2023-05-16T13:29:59;15.90;99.90
9215;DHT22;4642;51.364;6.788;2023-05-16T13:32:25;16.10;99.90
9215;DHT22;4642;51.364;6.788;2023-05-16T13:34:51;16.10;93.20
9215;DHT22;4642;51.364;6.788;2023-05-16T13:37:19;16.20;10.10
9215;DHT22;4642;51.364;6.788;2023-05-16T13:39:45;16.10;1.00
9215;DHT22;4642;51.364;6.788;2023-05-16T13:42:10;16.00;97.00
9215;DHT22;4642;51.364;6.788;2023-05-16T13:44:36;15.80;99.90
9215;DHT22;4642;51.364;6.788;2023-05-16T13:47:02;15.70;99.90
9215;DHT22;4642;51.364;6.788;2023-05-16T13:49:28;15.50;99.90
9215;DHT22;4642;51.364;6.788;2023-05-16T13:51:53;15.30;1.00
9215;DHT22;4642;51.364;6.788;2023-05-16T13:54:19;15.20;99.90
9215;DHT22;4642;51.364;6.788;2023-05-16T13:56:47;15.10;1.00
9215;DHT22;4642;51.364;6.788;2023-05-16T13:59:12;15.00;1.00
9215;DHT22;4642;51.364;6.788;2023-05-16T14:01:38;14.90;70.80
9215;DHT22;4642;51.364;6.788;2023-05-16T14:04:04;15.10;1.00
9215;DHT22;4642;51.364;6.788;2023-05-16T14:06:29;15.30;1.00
9215;DHT22;4642;51.364;6.788;2023-05-16T14:08:55;15.50;1.00
9215;DHT22;4642;51.364;6.788;2023-05-16T14:11:21;15.60;1.00
9215;DHT22;4642;51.364;6.788;2023-05-16T14:13:51;15.80;99.90
9215;DHT22;4642;51.364;6.788;2023-05-16T14:16:16;16.00;99.90
9215;DHT22;4642;51.364;6.788;2023-05-16T14:18:42;16.00;1.00
9215;DHT22;4642;51.364;6.788;2023-05-16T14:21:07;15.90;99.90
9215;DHT22;4642;51.364;6.788;2023-05-16T14:23:33;15.80;99.90
9215;DHT22;4642;51.364;6.788;2023-05-16T14:25:58;15.60;1.00
9215;DHT22;4642;51.364;6.788;2023-05-16T14:28:25;15.50;1.00
9215;DHT22;4642;51.364;6.788;2023-05-16T14:30:50;15.30;99.90
9215;DHT22;4642;51.364;6.788;2023-05-16T14:33:16;15.20;99.20
9215;DHT22;4642;51.364;6.788;2023-05-16T14:35:42;15.20;1.00
9215;DHT22;4642;51.364;6.788;2023-05-16T14:38:07;15.20;99.90
9215;DHT22;4642;51.364;6.788;2023-05-16T14:40:34;15.50;1.00
9215;DHT22;4642;51.364;6.788;2023-05-16T14:42:59;15.80;1.00
9215;DHT22;4642;51.364;6.788;2023-05-16T14:45:28;15.80;47.20
9215;DHT22;4642;51.364;6.788;2023-05-16T14:47:53;15.90;1.00
9215;DHT22;4642;51.364;6.788;2023-05-16T14:50:19;15.70;99.90
9215;DHT22;4642;51.364;6.788;2023-05-16T14:52:45;15.60;99.90
9215;DHT22;4642;51.364;6.788;2023-05-16T14:55:10;15.40;87.80
9215;DHT22;4642;51.364;6.788;2023-05-16T14:57:36;15.40;99.90
9215;DHT22;4642;51.364;6.788;2023-05-16T15:00:02;15.20;99.90
9215;DHT22;4642;51.364;6.788;2023-05-16T15:02:27;15.30;99.90
9215;DHT22;4642;51.364;6.788;2023-05-16T15:04:53;15.20;1.00
9215;DHT22;4642;51.364;6.788;2023-05-16T15:07:19;15.10;1.00
9215;DHT22;4642;51.364;6.788;2023-05-16T15:09:45;15.00;1.00
9215;DHT22;4642;51.364;6.788;2023-05-16T15:12:10;14.90;1.00
9215;DHT22;4642;51.364;6.788;2023-05-16T15:14:36;14.90;11.60
9215;DHT22;4642;51.364;6.788;2023-05-16T15:17:01;14.80;3.40
9215;DHT22;4642;51.364;6.788;2023-05-16T15:19:28;15.00;53.40
9215;DHT22;4642;51.364;6.788;2023-05-16T15:21:53;14.80;24.20
9215;DHT22;4642;51.364;6.788;2023-05-16T15:24:19;14.80;99.90
9215;DHT22;4642;51.364;6.788;2023-05-16T15:26:44;14.80;60.80
9215;DHT22;4642;51.364;6.788;2023-05-16T15:29:10;14.80;99.90
9215;DHT22;4642;51.364;6.788;2023-05-16T15:31:35;14.70;1.00
9215;DHT22;4642;51.364;6.788;2023-05-16T15:34:01;14.60;99.90
9215;DHT22;4642;51.364;6.788;2023-05-16T15:36:27;14.60;1.00
9215;DHT22;4642;51.364;6.788;2023-05-16T15:38:53;14.60;1.00
9215;DHT22;4642;51.364;6.788;2023-05-16T15:41:19;14.50;99.90
9215;DHT22;4642;51.364;6.788;2023-05-16T15:43:45;14.40;99.90
9215;DHT22;4642;51.364;6.788;2023-05-16T15:46:10;14.40;99.90
9215;DHT22;4642;51.364;6.788;2023-05-16T15:48:39;14.20;99.90
9215;DHT22;4642;51.364;6.788;2023-05-16T15:51:07;14.20;1.00
9215;DHT22;4642;51.364;6.788;2023-05-16T15:53:33;14.20;1.00
9215;DHT22;4642;51.364;6.788;2023-05-16T15:55:58;14.10;99.90
9215;DHT22;4642;51.364;6.788;2023-05-16T15:58:24;14.00;99.90
9215;DHT22;4642;51.364;6.788;2023-05-16T16:00:49;13.90;99.90
9215;DHT22;4642;51.364;6.788;2023-05-16T16:03:15;13.80;99.90
9215;DHT22;4642;51.364;6.788;2023-05-16T16:05:41;13.80;99.90
9215;DHT22;4642;51.364;6.788;2023-05-16T16:08:06;13.70;1.00
9215;DHT22;4642;51.364;6.788;2023-05-16T16:10:32;13.70;99.90
9215;DHT22;4642;51.364;6.788;2023-05-16T16:13:01;13.60;1.00
9215;DHT22;4642;51.364;6.788;2023-05-16T16:15:28;13.60;1.00
9215;DHT22;4642;51.364;6.788;2023-05-16T16:17:58;13.60;1.00
9215;DHT22;4642;51.364;6.788;2023-05-16T16:20:24;13.60;1.00
9215;DHT22;4642;51.364;6.788;2023-05-16T16:22:50;13.60;1.00
9215;DHT22;4642;51.364;6.788;2023-05-16T16:25:18;13.60;1.00
9215;DHT22;4642;51.364;6.788;2023-05-16T16:27:43;13.50;99.90
9215;DHT22;4642;51.364;6.788;2023-05-16T16:30:09;13.50;99.90